Time;durP1;ratioP1;P1;durP2;ratioP2;P2;SDS_P1;SDS_P2;PMS_P1;PMS_P2;Temp;Humidity;BMP_temperature;BMP_pressure;BME280_temperature;BME280_humidity;BME280_pressure;Samples;Min_cycle;Max_cycle;Signal;HPM_P1;HPM_P2
2022/03/29 00:00:03;;;;;;;22.13;16.42;;;7.50;99.90;;;;;;5136101;27;20060;-72
2022/03/29 00:02:29;;;;;;;18.75;16.45;;;7.50;99.90;;;;;;5154142;27;20047;-72
2022/03/29 00:04:55;;;;;;;19.40;16.73;;;7.50;99.90;;;;;;5156639;27;20045;-72
2022/03/29 00:07:20;;;;;;;21.17;16.35;;;7.50;99.90;;;;;;5136151;27;20039;-72
2022/03/29 00:09:46;;;;;;;21.83;16.40;;;7.50;99.90;;;;;;5135880;27;20054;-72
2022/03/29 00:12:11;;;;;;;22.35;16.85;;;7.50;99.90;;;;;;5136112;27;20064;-72
2022/03/29 00:14:37;;;;;;;21.02;18.08;;;7.50;99.90;;;;;;5135420;27;20054;-73
2022/03/29 00:17:03;;;;;;;20.52;17.20;;;7.50;99.90;;;;;;5148661;27;20479;-73
2022/03/29 00:19:29;;;;;;;24.50;18.63;;;7.50;99.90;;;;;;5155379;27;20072;-72
2022/03/29 00:21:55;;;;;;;23.60;18.83;;;7.50;99.90;;;;;;5155947;27;20039;-72
2022/03/29 00:24:21;;;;;;;23.83;17.95;;;7.50;99.90;;;;;;5155113;27;20049;-72
2022/03/29 00:26:47;;;;;;;23.05;17.60;;;7.40;99.90;;;;;;5155821;27;20126;-73
2022/03/29 00:29:12;;;;;;;25.63;18.02;;;7.40;99.90;;;;;;5155739;27;20051;-73
2022/03/29 00:31:38;;;;;;;23.30;17.80;;;7.40;99.90;;;;;;5136907;27;20073;-72
2022/03/29 00:34:03;;;;;;;26.02;18.20;;;7.40;99.90;;;;;;5116745;27;20390;-73
2022/03/29 00:36:29;;;;;;;21.00;17.38;;;7.40;99.90;;;;;;5155104;27;20179;-73
2022/03/29 00:38:55;;;;;;;22.27;17.00;;;7.40;99.90;;;;;;5155664;27;20043;-72
2022/03/29 00:41:21;;;;;;;24.23;17.35;;;7.40;99.90;;;;;;5128049;27;20043;-73
2022/03/29 00:43:47;;;;;;;22.40;17.77;;;7.40;99.90;;;;;;5155495;27;20099;-72
2022/03/29 00:46:12;;;;;;;22.80;17.13;;;7.40;99.90;;;;;;5102032;27;20506;-72
2022/03/29 00:48:38;;;;;;;23.10;17.00;;;7.40;99.90;;;;;;5134671;27;20739;-73
2022/03/29 00:51:04;;;;;;;23.20;17.90;;;7.40;99.90;;;;;;5135068;27;20127;-73
2022/03/29 00:53:30;;;;;;;22.83;17.42;;;7.40;99.90;;;;;;5116454;27;20039;-72
2022/03/29 00:55:56;;;;;;;23.50;16.90;;;7.40;99.90;;;;;;5116549;27;20046;-72
2022/03/29 00:58:21;;;;;;;25.20;17.38;;;7.50;99.90;;;;;;5109350;27;20050;-72
2022/03/29 01:00:47;;;;;;;21.75;17.38;;;7.40;99.90;;;;;;5137053;27;20091;-72
2022/03/29 01:03:15;;;;;;;24.67;16.98;;;7.40;99.90;;;;;;5137130;27;20406;-73
2022/03/29 01:05:41;;;;;;;24.38;17.90;;;7.40;99.90;;;;;;5155112;27;20053;-72
2022/03/29 01:08:07;;;;;;;23.13;17.63;;;7.40;99.90;;;;;;5155368;27;20538;-72
2022/03/29 01:10:34;;;;;;;26.92;18.33;;;7.40;99.90;;;;;;5154869;27;20050;-72
2022/03/29 01:12:59;;;;;;;24.42;18.17;;;7.40;99.90;;;;;;5155312;27;20089;-73
2022/03/29 01:15:26;;;;;;;23.92;18.30;;;7.50;99.90;;;;;;5124679;27;20443;-72
2022/03/29 01:17:53;;;;;;;25.30;18.65;;;7.40;99.90;;;;;;5116385;27;20414;-72
2022/03/29 01:20:21;;;;;;;22.92;17.83;;;7.40;99.90;;;;;;5134382;27;20042;-72
2022/03/29 01:22:50;;;;;;;22.90;17.88;;;7.60;99.90;;;;;;5115765;27;20097;-72
2022/03/29 01:25:17;;;;;;;23.80;18.08;;;7.40;99.90;;;;;;5115787;27;20503;-72
2022/03/29 01:27:44;;;;;;;27.02;18.33;;;7.50;99.90;;;;;;5133850;27;20523;-72
2022/03/29 01:30:10;;;;;;;24.70;18.13;;;7.40;99.90;;;;;;5099197;27;20437;-72
2022/03/29 01:32:36;;;;;;;24.45;17.73;;;7.50;99.90;;;;;;5134321;27;20050;-72
2022/03/29 01:35:03;;;;;;;23.15;17.60;;;7.50;99.90;;;;;;5099046;27;20047;-73
2022/03/29 01:37:28;;;;;;;23.77;18.52;;;7.50;99.90;;;;;;5133615;27;20035;-72
2022/03/29 01:39:54;;;;;;;23.42;17.58;;;7.50;99.90;;;;;;5134150;27;20096;-72
2022/03/29 01:42:19;;;;;;;25.15;18.73;;;7.50;99.90;;;;;;5134060;27;20104;-73
2022/03/29 01:44:45;;;;;;;24.23;16.98;;;7.40;99.90;;;;;;5133581;27;20115;-72
2022/03/29 01:47:11;;;;;;;28.05;17.42;;;7.50;99.90;;;;;;5098886;27;20047;-72
2022/03/29 01:49:37;;;;;;;25.88;17.58;;;7.50;99.90;;;;;;5115802;27;20054;-72
2022/03/29 01:52:03;;;;;;;19.30;16.23;;;7.50;99.90;;;;;;5115618;27;20051;-73
2022/03/29 01:54:30;;;;;;;23.60;17.33;;;7.50;99.90;;;;;;5114750;27;20380;-73
2022/03/29 01:56:57;;;;;;;24.33;17.05;;;7.50;99.90;;;;;;5115278;27;20077;-72
2022/03/29 01:59:23;;;;;;;24.65;17.88;;;7.50;99.90;;;;;;5115118;27;20101;-73
2022/03/29 02:01:50;;;;;;;24.23;17.30;;;7.50;99.90;;;;;;5146112;27;20574;-73
2022/03/29 02:04:16;;;;;;;22.02;17.50;;;7.50;99.90;;;;;;5154572;27;20089;-72
2022/03/29 02:06:42;;;;;;;24.25;17.75;;;7.50;99.90;;;;;;5140265;27;20086;-72
2022/03/29 02:09:08;;;;;;;23.27;17.30;;;7.50;99.90;;;;;;5115582;28;20479;-72
2022/03/29 02:11:35;;;;;;;26.88;17.30;;;7.50;99.90;;;;;;5115113;27;20127;-73
2022/03/29 02:14:01;;;;;;;22.02;17.50;;;7.50;99.90;;;;;;5115460;28;20058;-73
2022/03/29 02:16:27;;;;;;;24.95;18.38;;;7.50;99.90;;;;;;5098325;27;20121;-72
2022/03/29 02:18:52;;;;;;;27.27;18.00;;;7.50;99.90;;;;;;5133143;28;20089;-72
2022/03/29 02:21:18;;;;;;;23.10;17.77;;;7.60;99.90;;;;;;5133682;28;20047;-72
2022/03/29 02:23:43;;;;;;;22.75;17.45;;;7.50;99.90;;;;;;5147230;27;20046;-72
2022/03/29 02:26:09;;;;;;;23.13;17.80;;;7.50;99.90;;;;;;5135843;27;20110;-72
2022/03/29 02:28:35;;;;;;;25.35;18.10;;;7.50;99.90;;;;;;5135318;27;20054;-73
2022/03/29 02:31:01;;;;;;;25.92;18.52;;;7.50;99.90;;;;;;5154013;27;20457;-73
2022/03/29 02:33:26;;;;;;;24.35;17.40;;;7.50;99.90;;;;;;5135813;27;20088;-73
2022/03/29 02:35:52;;;;;;;24.10;19.42;;;7.50;99.90;;;;;;5153556;27;20522;-72
2022/03/29 02:38:18;;;;;;;23.52;17.83;;;7.50;99.90;;;;;;5154162;27;20111;-72
2022/03/29 02:40:44;;;;;;;24.02;17.90;;;7.60;99.90;;;;;;5141375;27;20050;-72
2022/03/29 02:43:10;;;;;;;25.38;17.60;;;7.50;99.90;;;;;;5119447;27;20498;-72
2022/03/29 02:45:35;;;;;;;22.92;17.27;;;7.50;99.90;;;;;;5125195;27;20039;-73
2022/03/29 02:48:01;;;;;;;24.95;17.45;;;7.50;99.90;;;;;;5133737;27;20038;-73
2022/03/29 02:50:27;;;;;;;23.52;18.13;;;7.50;99.90;;;;;;5139162;27;20440;-73
2022/03/29 02:52:54;;;;;;;30.10;18.15;;;7.50;99.90;;;;;;5157074;27;20090;-73
2022/03/29 02:55:21;;;;;;;28.90;19.40;;;7.50;99.90;;;;;;5157528;27;20050;-73
2022/03/29 02:57:47;;;;;;;24.23;18.25;;;7.50;99.90;;;;;;5129684;27;20099;-73
2022/03/29 03:00:15;;;;;;;22.92;17.30;;;7.50;99.90;;;;;;5157604;27;20051;-73
2022/03/29 03:02:47;;;;;;;26.52;17.83;;;7.50;99.90;;;;;;5144878;27;20046;-73
2022/03/29 03:05:13;;;;;;;23.98;18.08;;;7.50;99.90;;;;;;5136949;27;20042;-72
2022/03/29 03:07:42;;;;;;;28.08;18.38;;;7.50;99.90;;;;;;5157044;27;20030;-73
2022/03/29 03:10:08;;;;;;;23.70;17.67;;;7.50;99.90;;;;;;5157369;27;20047;-72
2022/03/29 03:12:38;;;;;;;28.58;19.23;;;7.50;99.90;;;;;;5157114;27;20043;-73
2022/03/29 03:15:05;;;;;;;23.58;18.38;;;7.50;99.90;;;;;;5148281;27;20083;-73
2022/03/29 03:17:31;;;;;;;23.80;17.92;;;7.50;99.90;;;;;;5136673;27;20453;-73
2022/03/29 03:19:56;;;;;;;24.58;18.45;;;7.50;99.90;;;;;;5136064;27;20135;-73
2022/03/29 03:22:22;;;;;;;23.15;18.25;;;7.50;99.90;;;;;;5136752;27;20086;-72
2022/03/29 03:24:47;;;;;;;23.02;17.17;;;7.50;99.90;;;;;;5135896;27;20039;-73
2022/03/29 03:27:13;;;;;;;24.70;18.88;;;7.40;99.90;;;;;;5136655;27;20080;-72
2022/03/29 03:29:39;;;;;;;24.27;17.85;;;7.50;99.90;;;;;;5136510;27;20087;-72
2022/03/29 03:32:05;;;;;;;24.00;18.48;;;7.50;99.90;;;;;;5136553;27;20043;-73
2022/03/29 03:34:31;;;;;;;23.85;17.67;;;7.50;99.90;;;;;;5136530;27;20047;-73
2022/03/29 03:36:58;;;;;;;27.05;18.33;;;7.50;99.90;;;;;;5136042;27;20050;-72
2022/03/29 03:39:24;;;;;;;29.60;18.67;;;7.50;99.90;;;;;;5136399;27;20039;-72
2022/03/29 03:41:50;;;;;;;27.40;17.83;;;7.50;99.90;;;;;;5117676;27;20050;-72
2022/03/29 03:44:15;;;;;;;28.90;18.63;;;7.50;99.90;;;;;;5136498;27;20039;-72
2022/03/29 03:46:41;;;;;;;24.50;18.98;;;7.50;99.90;;;;;;5136185;27;20051;-72
2022/03/29 03:49:06;;;;;;;24.83;18.38;;;7.50;99.90;;;;;;5136485;27;20047;-72
2022/03/29 03:51:32;;;;;;;26.48;19.05;;;7.50;99.90;;;;;;5134210;27;20058;-73
2022/03/29 03:53:59;;;;;;;25.85;18.50;;;7.50;99.90;;;;;;5100555;27;20495;-72
2022/03/29 03:56:24;;;;;;;29.13;19.20;;;7.40;99.90;;;;;;5136011;27;20391;-72
2022/03/29 03:58:50;;;;;;;27.52;19.15;;;7.50;99.90;;;;;;5135515;27;20047;-73
2022/03/29 04:01:15;;;;;;;28.08;19.60;;;7.40;99.90;;;;;;5144166;27;20111;-72
2022/03/29 04:03:41;;;;;;;35.30;20.30;;;7.50;99.90;;;;;;5156783;27;20390;-72
2022/03/29 04:06:07;;;;;;;28.38;20.17;;;7.40;99.90;;;;;;5138845;27;20158;-72
2022/03/29 04:08:32;;;;;;;30.48;20.23;;;7.40;99.90;;;;;;5135796;27;20039;-73
2022/03/29 04:10:58;;;;;;;27.92;19.88;;;7.40;99.90;;;;;;5135609;27;20134;-73
2022/03/29 04:13:24;;;;;;;28.88;19.92;;;7.40;99.90;;;;;;5117641;27;20039;-72
2022/03/29 04:15:50;;;;;;;27.52;20.23;;;7.40;99.90;;;;;;5135247;27;20035;-73
2022/03/29 04:18:16;;;;;;;27.67;19.75;;;7.40;99.90;;;;;;5135744;27;20047;-73
2022/03/29 04:20:42;;;;;;;31.58;20.40;;;7.40;99.90;;;;;;5117480;27;20059;-72
2022/03/29 04:23:08;;;;;;;28.88;19.27;;;7.50;99.90;;;;;;5117475;27;20050;-73
2022/03/29 04:25:34;;;;;;;31.23;20.58;;;7.40;99.90;;;;;;5135556;27;20047;-73
2022/03/29 04:28:00;;;;;;;29.95;20.50;;;7.40;99.90;;;;;;5116922;27;20039;-73
2022/03/29 04:30:26;;;;;;;27.88;19.70;;;7.40;99.90;;;;;;5135487;27;20046;-72
2022/03/29 04:32:55;;;;;;;27.02;19.77;;;7.40;99.90;;;;;;5134989;27;20376;-73
2022/03/29 04:35:21;;;;;;;28.90;20.20;;;7.40;99.90;;;;;;5135411;27;20070;-72
2022/03/29 04:37:46;;;;;;;29.95;20.75;;;7.40;99.90;;;;;;5135448;27;20043;-72
2022/03/29 04:40:12;;;;;;;28.92;20.13;;;7.40;99.90;;;;;;5117166;27;20501;-72
2022/03/29 04:42:46;;;;;;;30.77;20.40;;;7.40;99.90;;;;;;5117181;27;20049;-72
2022/03/29 04:45:12;;;;;;;31.15;19.85;;;7.40;99.90;;;;;;5134868;27;20379;-73
2022/03/29 04:47:41;;;;;;;29.70;20.60;;;7.40;99.90;;;;;;5134692;27;20521;-72
2022/03/29 04:50:08;;;;;;;31.58;20.73;;;7.40;99.90;;;;;;5116572;27;20047;-72
2022/03/29 04:52:34;;;;;;;29.63;19.70;;;7.40;99.90;;;;;;5135170;27;20043;-72
2022/03/29 04:55:00;;;;;;;32.15;20.10;;;7.40;99.90;;;;;;5116281;27;20126;-72
2022/03/29 04:57:26;;;;;;;30.35;20.13;;;7.40;99.90;;;;;;5136094;27;20046;-72
2022/03/29 04:59:52;;;;;;;28.65;19.42;;;7.40;99.90;;;;;;5137008;27;20410;-72
2022/03/29 05:02:17;;;;;;;30.83;19.98;;;7.40;99.90;;;;;;5152711;27;20035;-72
2022/03/29 05:04:44;;;;;;;29.63;18.95;;;7.40;99.90;;;;;;5155393;27;20053;-74
2022/03/29 05:07:10;;;;;;;28.77;19.95;;;7.40;99.90;;;;;;5155064;27;20082;-73
2022/03/29 05:09:36;;;;;;;30.80;20.25;;;7.40;99.90;;;;;;5155349;27;20090;-73
2022/03/29 05:12:02;;;;;;;34.08;19.75;;;7.30;99.90;;;;;;5154733;27;20210;-73
2022/03/29 05:14:27;;;;;;;29.42;19.42;;;7.40;99.90;;;;;;5115927;27;20050;-74
2022/03/29 05:16:53;;;;;;;32.42;19.55;;;7.40;99.90;;;;;;5152332;27;20030;-72
2022/03/29 05:19:19;;;;;;;29.73;19.58;;;7.40;99.90;;;;;;5154280;27;20056;-73
2022/03/29 05:21:44;;;;;;;33.33;20.42;;;7.40;99.90;;;;;;5164513;27;20096;-73
2022/03/29 05:24:10;;;;;;;29.10;19.42;;;7.40;99.90;;;;;;5154322;27;20118;-73
2022/03/29 05:26:36;;;;;;;28.40;19.00;;;7.30;99.90;;;;;;5154837;27;20045;-73
2022/03/29 05:29:02;;;;;;;31.20;21.00;;;7.40;99.90;;;;;;5153820;27;20486;-74
2022/03/29 05:31:28;;;;;;;30.35;20.40;;;7.40;99.90;;;;;;5154544;27;20050;-73
2022/03/29 05:33:54;;;;;;;28.85;19.60;;;7.40;99.90;;;;;;5154673;27;20039;-72
2022/03/29 05:36:19;;;;;;;29.58;19.90;;;7.40;99.90;;;;;;5135561;27;20501;-73
2022/03/29 05:38:50;;;;;;;31.42;20.02;;;7.40;99.90;;;;;;5154322;27;20054;-73
2022/03/29 05:41:19;;;;;;;30.30;19.23;;;7.40;99.90;;;;;;5136182;27;20050;-73
2022/03/29 05:43:46;;;;;;;36.72;20.55;;;7.40;99.90;;;;;;5154308;27;20431;-73
2022/03/29 05:48:56;;;;;;;26.20;18.75;;;7.40;99.90;;;;;;5138941;27;20054;-73
2022/03/29 05:51:24;;;;;;;31.88;19.25;;;7.40;99.90;;;;;;5154099;27;20043;-73
2022/03/29 05:53:51;;;;;;;34.20;20.60;;;7.30;99.90;;;;;;5136336;27;20046;-73
2022/03/29 05:56:17;;;;;;;33.78;19.83;;;7.40;99.90;;;;;;5135509;27;20042;-73
2022/03/29 05:58:43;;;;;;;27.95;18.95;;;7.30;99.90;;;;;;5154072;27;20059;-73
2022/03/29 06:01:09;;;;;;;30.02;19.77;;;7.30;99.90;;;;;;5153997;27;20050;-73
2022/03/29 06:03:34;;;;;;;30.23;20.52;;;7.30;99.90;;;;;;5150076;27;20051;-73
2022/03/29 06:06:00;;;;;;;30.23;19.40;;;7.30;99.90;;;;;;5133934;27;20062;-73
2022/03/29 06:08:25;;;;;;;31.10;19.85;;;7.40;99.90;;;;;;5133329;27;20054;-73
2022/03/29 06:10:53;;;;;;;33.00;20.92;;;7.40;99.90;;;;;;5115432;27;20043;-73
2022/03/29 06:13:18;;;;;;;29.85;19.80;;;7.50;99.90;;;;;;5133252;27;20399;-73
2022/03/29 06:15:44;;;;;;;33.33;20.55;;;7.40;99.90;;;;;;5114491;27;20043;-73
2022/03/29 06:18:10;;;;;;;30.77;20.63;;;7.40;99.90;;;;;;5133155;27;20046;-73
2022/03/29 06:20:35;;;;;;;33.17;21.33;;;7.40;99.90;;;;;;5134102;27;20039;-73
2022/03/29 06:23:01;;;;;;;29.17;20.08;;;7.40;99.90;;;;;;5115212;28;20395;-74
2022/03/29 06:25:27;;;;;;;33.60;19.98;;;7.40;99.90;;;;;;5114820;28;20047;-73
2022/03/29 06:27:54;;;;;;;32.33;20.20;;;7.40;99.90;;;;;;5133453;28;20119;-73
2022/03/29 06:30:20;;;;;;;31.92;20.95;;;7.50;99.90;;;;;;5115059;28;20039;-73
2022/03/29 06:32:50;;;;;;;31.05;20.33;;;7.50;99.90;;;;;;5133212;28;20055;-73
2022/03/29 06:35:27;;;;;;;30.65;19.88;;;7.50;99.90;;;;;;5132918;28;20047;-73
2022/03/29 06:37:58;;;;;;;32.58;20.30;;;7.50;99.90;;;;;;5115623;28;20395;-73
2022/03/29 06:40:24;;;;;;;;;;;7.50;99.90;;;;;;5133515;28;20050;-73
2022/03/29 06:42:50;;;;;;;32.35;20.23;;;7.40;99.90;;;;;;5133412;28;19919;-72
2022/03/29 06:45:16;;;;;;;30.08;20.85;;;7.50;99.90;;;;;;5133021;28;20039;-73
2022/03/29 06:47:41;;;;;;;30.95;20.13;;;7.50;99.90;;;;;;5115022;28;20068;-73
2022/03/29 06:50:08;;;;;;;27.65;20.83;;;7.60;99.90;;;;;;5098324;28;20498;-73
2022/03/29 06:52:38;;;;;;;34.35;20.92;;;7.50;99.90;;;;;;5098158;28;20139;-73
2022/03/29 06:55:05;;;;;;;32.13;21.30;;;7.60;99.90;;;;;;5133862;27;20092;-73
2022/03/29 06:57:30;;;;;;;30.90;21.08;;;7.50;99.90;;;;;;5102929;28;20058;-73
2022/03/29 06:59:56;;;;;;;33.22;20.40;;;7.60;99.90;;;;;;5129858;27;20503;-73
2022/03/29 07:02:22;;;;;;;33.63;20.92;;;7.60;99.90;;;;;;5153191;27;20050;-73
2022/03/29 07:04:47;;;;;;;32.30;20.77;;;7.70;99.90;;;;;;5132498;27;20113;-75
2022/03/29 07:07:13;;;;;;;32.38;21.70;;;7.60;99.90;;;;;;5143227;27;20475;-75
2022/03/29 07:12:23;;;;;;;29.80;20.35;;;7.70;99.90;;;;;;5146598;27;20444;-75
2022/03/29 07:14:49;;;;;;;34.08;21.25;;;7.70;99.90;;;;;;5138443;27;20047;-74
2022/03/29 07:17:17;;;;;;;29.25;20.95;;;7.70;99.90;;;;;;5152711;27;20455;-74
2022/03/29 07:19:43;;;;;;;32.53;22.10;;;7.70;99.90;;;;;;5134953;27;20049;-74
2022/03/29 07:22:08;;;;;;;35.58;21.85;;;7.70;99.90;;;;;;5153699;27;20460;-74
2022/03/29 07:24:34;;;;;;;36.25;22.08;;;7.80;99.90;;;;;;5153160;27;20057;-74
2022/03/29 07:27:00;;;;;;;32.97;21.25;;;7.70;99.90;;;;;;5132843;27;20050;-74
2022/03/29 07:29:26;;;;;;;33.83;21.83;;;7.80;99.90;;;;;;5156936;27;20068;-73
2022/03/29 07:31:52;;;;;;;36.53;22.27;;;7.80;99.90;;;;;;5138976;27;20061;-74
2022/03/29 07:34:18;;;;;;;36.72;22.30;;;7.80;99.90;;;;;;5138561;27;20394;-74
2022/03/29 07:36:44;;;;;;;33.25;21.23;;;7.80;99.90;;;;;;5135061;27;20039;-74
2022/03/29 07:39:10;;;;;;;30.27;21.88;;;7.80;99.90;;;;;;5156603;27;20039;-74
2022/03/29 07:41:35;;;;;;;31.17;22.13;;;7.80;99.90;;;;;;5138460;27;20209;-73
2022/03/29 07:44:02;;;;;;;33.13;21.30;;;7.80;99.90;;;;;;5138679;27;20131;-73
2022/03/29 07:46:28;;;;;;;35.35;22.35;;;7.90;99.90;;;;;;5138225;27;20152;-73
2022/03/29 07:48:54;;;;;;;39.08;22.20;;;8.00;99.90;;;;;;5157510;27;20130;-72
2022/03/29 07:51:19;;;;;;;32.97;21.17;;;7.90;99.90;;;;;;5156797;27;20043;-73
2022/03/29 07:53:47;;;;;;;35.25;22.67;;;7.90;99.90;;;;;;5121445;27;20047;-74
2022/03/29 07:56:12;;;;;;;34.22;22.48;;;7.90;99.90;;;;;;5138378;27;20057;-74
2022/03/29 07:58:38;;;;;;;34.00;23.17;;;7.90;99.90;;;;;;5137933;27;20058;-73
2022/03/29 08:01:04;;;;;;;35.40;22.65;;;7.90;99.90;;;;;;5138309;27;20438;-73
2022/03/29 08:03:33;;;;;;;38.25;21.38;;;7.80;99.90;;;;;;5156021;27;20478;-74
2022/03/29 08:06:00;;;;;;;31.15;22.13;;;7.90;99.90;;;;;;5138836;27;20386;-75
2022/03/29 08:08:25;;;;;;;36.15;22.50;;;7.80;99.90;;;;;;5156120;27;20121;-74
2022/03/29 08:10:51;;;;;;;33.97;22.17;;;7.80;99.90;;;;;;5138332;27;20135;-74
2022/03/29 08:13:18;;;;;;;33.42;21.85;;;7.90;99.90;;;;;;5156617;27;20448;-74
2022/03/29 08:15:45;;;;;;;34.20;22.73;;;7.90;99.90;;;;;;5137535;27;20530;-74
2022/03/29 08:18:11;;;;;;;34.53;22.33;;;7.90;99.90;;;;;;5138253;27;20441;-74
2022/03/29 08:20:37;;;;;;;35.45;21.95;;;7.90;99.90;;;;;;5156120;27;20479;-74
2022/03/29 08:23:03;;;;;;;32.33;21.88;;;8.00;99.90;;;;;;5137853;27;20038;-74
2022/03/29 08:25:30;;;;;;;36.70;22.85;;;8.00;99.90;;;;;;5155986;27;20052;-74
2022/03/29 08:27:56;;;;;;;34.60;22.05;;;8.10;99.90;;;;;;5156483;27;20047;-74
2022/03/29 08:30:22;;;;;;;35.47;23.25;;;8.10;99.90;;;;;;5138167;27;20043;-74
2022/03/29 08:32:47;;;;;;;34.95;23.52;;;8.20;99.90;;;;;;5156397;27;20080;-74
2022/03/29 08:35:13;;;;;;;38.72;23.25;;;8.30;99.90;;;;;;5120907;27;20047;-74
2022/03/29 08:37:39;;;;;;;37.00;23.20;;;8.30;99.90;;;;;;5136678;27;20042;-74
2022/03/29 08:40:06;;;;;;;34.65;22.42;;;8.40;99.90;;;;;;5137850;27;20393;-74
2022/03/29 08:42:32;;;;;;;36.28;21.73;;;8.40;99.90;;;;;;5155729;27;20086;-74
2022/03/29 08:45:05;;;;;;;34.03;22.30;;;8.40;99.90;;;;;;5156166;27;20099;-74
2022/03/29 08:47:30;;;;;;;33.22;21.63;;;8.50;99.90;;;;;;5155745;27;20125;-73
2022/03/29 08:49:56;;;;;;;33.35;21.80;;;8.50;99.90;;;;;;5120413;27;20101;-74
2022/03/29 08:52:22;;;;;;;36.92;21.83;;;8.50;99.90;;;;;;5137547;27;20046;-74
2022/03/29 08:54:47;;;;;;;33.15;21.48;;;8.60;99.90;;;;;;5120058;27;20043;-74
2022/03/29 08:57:13;;;;;;;32.03;20.90;;;8.70;99.90;;;;;;5120182;27;20490;-75
2022/03/29 08:59:40;;;;;;;37.65;21.08;;;8.70;99.90;;;;;;5154800;27;20554;-73
2022/03/29 09:02:13;;;;;;;39.10;22.15;;;8.70;99.90;;;;;;5137412;27;20054;-74
2022/03/29 09:04:39;;;;;;;38.13;22.42;;;8.80;99.90;;;;;;5136987;27;20042;-73
2022/03/29 09:07:04;;;;;;;35.67;20.55;;;8.70;99.90;;;;;;5155629;27;20043;-74
2022/03/29 09:09:38;;;;;;;28.50;21.05;;;8.80;99.90;;;;;;5155093;27;20066;-73
2022/03/29 09:12:11;;;;;;;32.50;21.23;;;8.90;99.90;;;;;;5155545;27;20047;-73
2022/03/29 09:14:55;;;;;;;35.15;20.55;;;9.00;99.90;;;;;;5136881;27;20053;-74
2022/03/29 09:17:31;;;;;;;35.72;20.20;;;9.00;99.90;;;;;;5155402;27;20049;-74
2022/03/29 09:19:57;;;;;;;30.42;20.73;;;9.00;99.90;;;;;;5155445;27;20447;-73
2022/03/29 09:22:39;;;;;;;32.03;20.58;;;9.00;99.90;;;;;;5119851;27;20478;-74
2022/03/29 09:25:07;;;;;;;35.03;20.83;;;9.00;99.90;;;;;;5155246;27;20043;-74
2022/03/29 09:27:53;;;;;;;32.78;20.58;;;8.90;99.90;;;;;;5154941;27;20043;-74
2022/03/29 09:30:18;;;;;;;30.80;20.30;;;9.00;99.90;;;;;;5155149;27;20043;-73
2022/03/29 09:33:22;;;;;;;34.85;20.77;;;9.00;99.90;;;;;;5136373;27;20042;-74
2022/03/29 09:36:07;;;;;;;31.63;20.48;;;9.00;99.90;;;;;;5140272;27;20057;-74
2022/03/29 09:38:36;;;;;;;38.38;21.48;;;9.10;99.90;;;;;;5150240;27;20039;-75
2022/03/29 09:41:02;;;;;;;33.03;20.23;;;9.20;99.90;;;;;;5146458;27;20099;-75
2022/03/29 09:43:29;;;;;;;33.40;19.83;;;9.20;99.90;;;;;;5154245;27;20498;-74
2022/03/29 09:45:59;;;;;;;36.20;21.48;;;9.30;99.90;;;;;;5135686;27;20130;-74
2022/03/29 09:48:26;;;;;;;29.58;19.70;;;9.40;99.90;;;;;;5136539;27;20042;-74
2022/03/29 09:50:53;;;;;;;31.42;20.23;;;9.40;99.90;;;;;;5153126;27;20615;-74
2022/03/29 09:53:40;;;;;;;33.22;19.92;;;9.40;99.90;;;;;;5136216;27;20398;-74
2022/03/29 09:56:07;;;;;;;30.13;19.35;;;9.40;99.90;;;;;;5129469;27;20053;-74
2022/03/29 09:58:33;;;;;;;30.50;19.30;;;9.40;99.90;;;;;;5154339;27;20045;-74
2022/03/29 10:00:59;;;;;;;30.73;19.27;;;9.50;99.90;;;;;;5131769;27;20483;-75
2022/03/29 10:03:25;;;;;;;40.60;19.63;;;9.60;99.90;;;;;;5111938;28;20043;-74
2022/03/29 10:05:51;;;;;;;31.45;19.52;;;9.60;99.90;;;;;;5130184;27;20039;-74
2022/03/29 10:11:03;;;;;;;32.05;19.15;;;9.70;99.90;;;;;;5098137;28;20112;-74
2022/03/29 10:13:30;;;;;;;30.63;18.83;;;9.70;99.90;;;;;;5113100;28;20055;-74
2022/03/29 10:15:56;;;;;;;32.88;19.58;;;9.70;99.90;;;;;;5094819;28;20051;-74
2022/03/29 10:18:22;;;;;;;32.00;18.75;;;9.70;99.90;;;;;;5111960;28;20054;-74
2022/03/29 10:20:48;;;;;;;31.08;18.10;;;9.80;99.90;;;;;;5111248;28;20048;-74
2022/03/29 10:23:22;;;;;;;33.25;17.70;;;9.90;99.90;;;;;;5113039;28;20445;-74
2022/03/29 10:25:48;;;;;;;36.28;18.42;;;9.90;99.90;;;;;;5111521;28;20051;-74
2022/03/29 10:28:14;;;;;;;30.75;17.98;;;10.00;99.90;;;;;;5111909;28;20050;-74
2022/03/29 10:30:41;;;;;;;30.20;16.27;;;10.20;99.90;;;;;;5112654;28;20047;-76
2022/03/29 10:33:19;;;;;;;30.02;14.10;;;10.20;99.90;;;;;;5111854;28;20087;-74
2022/03/29 10:36:13;;;;;;;24.35;14.02;;;10.30;99.80;;;;;;5112453;28;20047;-74
2022/03/29 10:38:49;;;;;;;26.10;14.77;;;10.30;99.50;;;;;;5095238;28;20047;-74
2022/03/29 10:41:30;;;;;;;29.05;14.32;;;10.30;99.00;;;;;;5113001;28;20126;-74
2022/03/29 10:44:05;;;;;;;30.50;15.15;;;10.40;99.40;;;;;;5112669;28;20048;-74
2022/03/29 10:46:37;;;;;;;29.95;14.68;;;10.40;98.90;;;;;;5095820;28;20044;-74
2022/03/29 10:49:32;;;;;;;28.83;13.85;;;10.50;98.60;;;;;;5112520;28;20056;-74
2022/03/29 10:52:06;;;;;;;27.20;14.32;;;10.50;98.50;;;;;;5111223;28;20411;-74
2022/03/29 10:54:37;;;;;;;23.63;12.45;;;10.50;98.50;;;;;;5112817;28;20047;-74
2022/03/29 10:57:04;;;;;;;20.65;12.75;;;10.50;98.00;;;;;;5111149;28;20474;-74
2022/03/29 10:59:30;;;;;;;24.58;13.02;;;10.40;98.00;;;;;;5118479;28;20139;-74
2022/03/29 11:02:15;;;;;;;73.60;22.58;;;10.40;97.60;;;;;;5135338;27;20518;-74
2022/03/29 11:04:59;;;;;;;32.58;14.70;;;10.40;97.30;;;;;;5119084;27;20555;-74
2022/03/29 11:07:25;;;;;;;27.67;13.10;;;10.50;97.40;;;;;;5137243;27;20082;-74
2022/03/29 11:10:07;;;;;;;28.50;12.95;;;10.50;97.40;;;;;;5085035;27;20095;-74
2022/03/29 11:12:53;;;;;;;32.55;13.20;;;10.50;97.10;;;;;;5137320;27;20043;-74
2022/03/29 11:15:25;;;;;;;28.05;12.60;;;10.50;97.30;;;;;;5137224;27;20434;-74
2022/03/29 11:17:54;;;;;;;26.40;12.68;;;10.50;95.80;;;;;;5118026;27;20131;-74
2022/03/29 11:20:34;;;;;;;27.48;12.27;;;10.60;96.70;;;;;;5137064;27;20175;-77
2022/03/29 11:23:06;;;;;;;26.83;12.25;;;10.60;95.80;;;;;;5118226;27;20130;-74
2022/03/29 11:25:39;;;;;;;27.40;13.10;;;10.60;95.40;;;;;;5137024;27;20062;-74
2022/03/29 11:28:13;;;;;;;20.08;11.07;;;10.60;95.40;;;;;;5118359;27;20051;-75
2022/03/29 11:30:38;;;;;;;25.25;11.45;;;10.60;96.00;;;;;;5101620;27;20047;-74
2022/03/29 11:33:05;;;;;;;22.38;11.60;;;10.60;95.50;;;;;;5118246;27;20043;-75
2022/03/29 11:35:32;;;;;;;24.02;12.00;;;10.60;95.30;;;;;;5136844;27;20129;-75
2022/03/29 11:38:12;;;;;;;28.27;11.98;;;10.50;95.10;;;;;;5101019;27;20039;-75
2022/03/29 11:40:38;;;;;;;26.60;11.75;;;10.60;94.60;;;;;;5136794;27;20103;-75
2022/03/29 11:43:05;;;;;;;24.38;11.57;;;10.50;95.10;;;;;;5100970;27;20433;-75
2022/03/29 11:45:45;;;;;;;22.95;11.20;;;10.60;95.30;;;;;;5118633;27;20054;-74
2022/03/29 11:48:12;;;;;;;30.67;12.05;;;10.60;94.90;;;;;;5117811;27;20047;-75
2022/03/29 11:50:46;;;;;;;21.30;10.95;;;10.60;95.20;;;;;;5118530;27;20057;-75
2022/03/29 11:53:21;;;;;;;27.63;11.45;;;10.60;93.80;;;;;;5118466;27;20055;-75
2022/03/29 11:55:53;;;;;;;23.30;11.10;;;10.80;94.70;;;;;;5136511;27;20070;-75
2022/03/29 11:58:29;;;;;;;23.23;10.70;;;10.80;94.20;;;;;;5136301;27;20043;-75
2022/03/29 12:01:15;;;;;;;24.83;11.30;;;11.00;94.90;;;;;;5135526;27;20130;-76
2022/03/29 12:03:45;;;;;;;23.73;10.38;;;11.00;93.40;;;;;;5118274;27;20122;-75
2022/03/29 12:06:31;;;;;;;24.42;10.73;;;11.10;93.40;;;;;;5135769;27;20047;-75
2022/03/29 12:09:08;;;;;;;24.13;11.02;;;11.00;93.30;;;;;;5148813;27;20043;-75
2022/03/29 12:11:39;;;;;;;24.55;11.43;;;11.10;93.60;;;;;;5137946;27;20047;-75
2022/03/29 12:14:15;;;;;;;27.05;10.95;;;11.20;93.30;;;;;;5101935;27;20043;-75
2022/03/29 12:16:49;;;;;;;25.13;10.85;;;11.20;91.10;;;;;;5138108;27;20095;-74
2022/03/29 12:19:19;;;;;;;21.80;9.70;;;11.20;91.90;;;;;;5155995;27;20102;-74
2022/03/29 12:21:50;;;;;;;28.00;10.38;;;11.20;93.10;;;;;;5137646;27;20434;-76
2022/03/29 12:24:16;;;;;;;;;;;11.10;93.20;;;;;;5139735;27;20042;-76
2022/03/29 12:26:47;;;;;;;25.23;9.15;;;10.90;91.10;;;;;;5120680;27;20295;-76
2022/03/29 12:29:20;;;;;;;26.50;10.40;;;10.90;93.20;;;;;;5116560;27;20047;-76
2022/03/29 12:31:46;;;;;;;23.50;9.95;;;10.90;93.40;;;;;;5130724;27;20047;-80
2022/03/29 12:34:13;;;;;;;29.15;10.35;;;10.90;93.30;;;;;;5137337;27;20043;-74
2022/03/29 12:36:49;;;;;;;25.20;10.00;;;11.00;92.90;;;;;;5117104;27;20524;-75
2022/03/29 12:39:15;;;;;;;23.45;9.82;;;11.00;92.30;;;;;;5116467;27;20055;-73
2022/03/29 12:41:44;;;;;;;22.10;9.57;;;11.00;93.00;;;;;;5145484;27;20038;-75
2022/03/29 12:44:46;;;;;;;21.95;9.40;;;11.00;92.80;;;;;;5147346;27;20256;-76
2022/03/29 12:47:12;;;;;;;24.73;9.82;;;11.00;92.30;;;;;;5155314;27;20490;-75